Appleby, South Dakota
Current Conditions -  °F | °C
As of 6:53 PM on Friday 21 Nov 2014 (Local Time) from KATY Reporting Station
Clear Clear  
Wind Chill: 24°   Ceiling: Unl
Heat Index: 33°   Visibility: 10mi
Dew Point: 28°   Wind: 13mph
Humidity: 82%   Direction: 190°S
Pressure: 29.81"   Gusts: NA
Location:  44.9156°N, 97.1699°W
Report Text: KATY 220053Z AUTO 19011KT 10SM CLR 01/M02 A2981 RMK AO2 SLP118 T00061022
Loading
Personal Weather Stations






























Interactive Weather Map New forecast layout! Learn more

10-Day Weather Forecast

Advertisements
Track Severe Weather on mobile